KMVH

N Bar Ranch Airport

Grassrange, Montana, USA
METAR KMVH 181315Z AUTO 25012KT 10SM CLR 07/M07 A2979 RMK AO2
Observed Flight Rules
Dec-18 @ 13:15 UTC (32 minutes ago) Visual Flight Rules
Wind Visibility Clouds
250° at 12 knots 10 miles
  • Clear skies
Temperatures Readings
Current 7°C / 45°F
Dewpoint -7°C / 19°F
Humidity 37%
Altimeter 29.79" Hg
Pressure 1009 hPa
Elevation 1355
METAR KMVH 181315Z AUTO 25012KT 10SM CLR 07/M07 A2979 RMK AO2
Observed Flight Rules
Dec-18 @ 13:15 UTC
(32 minutes ago)
VFR
Wind Visibility
250° at 12 knots 10 miles
Clouds
  • Clear skies
Temperature Dewpoint
7°C / 45°F -7°C / 19°F
Humidity Altimeter Pressure
37% 29.79" Hg 1009 hPa